sensor_id;sensor_type;location;lat;lon;timestamp;temperature;humidity
12746;DHT22;6437;53.686;10.030;2023-04-15T00:00:46;10.20;99.90
12746;DHT22;6437;53.686;10.030;2023-04-15T00:02:48;10.50;99.90
12746;DHT22;6437;53.686;10.030;2023-04-15T00:04:50;10.20;99.90
12746;DHT22;6437;53.686;10.030;2023-04-15T00:06:53;9.80;99.90
12746;DHT22;6437;53.686;10.030;2023-04-15T00:09:03;10.20;99.90
12746;DHT22;6437;53.686;10.030;2023-04-15T00:11:06;10.30;99.90
12746;DHT22;6437;53.686;10.030;2023-04-15T00:13:13;10.30;99.90
12746;DHT22;6437;53.686;10.030;2023-04-15T00:15:15;10.30;99.90
12746;DHT22;6437;53.686;10.030;2023-04-15T00:17:17;10.30;99.90
12746;DHT22;6437;53.686;10.030;2023-04-15T00:19:18;10.40;99.90
12746;DHT22;6437;53.686;10.030;2023-04-15T00:21:20;10.20;99.90
12746;DHT22;6437;53.686;10.030;2023-04-15T00:23:22;10.20;99.90
12746;DHT22;6437;53.686;10.030;2023-04-15T00:25:24;10.20;99.90
12746;DHT22;6437;53.686;10.030;2023-04-15T00:27:27;10.20;99.90
12746;DHT22;6437;53.686;10.030;2023-04-15T00:29:30;10.20;99.90
12746;DHT22;6437;53.686;10.030;2023-04-15T00:31:32;10.20;99.90
12746;DHT22;6437;53.686;10.030;2023-04-15T00:33:37;10.20;99.90
12746;DHT22;6437;53.686;10.030;2023-04-15T00:35:41;10.20;99.90
12746;DHT22;6437;53.686;10.030;2023-04-15T00:37:43;10.20;99.90
12746;DHT22;6437;53.686;10.030;2023-04-15T00:39:45;11.20;99.90
12746;DHT22;6437;53.686;10.030;2023-04-15T00:41:54;11.60;99.90
12746;DHT22;6437;53.686;10.030;2023-04-15T00:44:10;10.20;99.90
12746;DHT22;6437;53.686;10.030;2023-04-15T00:46:13;10.20;99.90
12746;DHT22;6437;53.686;10.030;2023-04-15T00:48:16;10.20;99.90
12746;DHT22;6437;53.686;10.030;2023-04-15T00:50:18;11.40;99.90
12746;DHT22;6437;53.686;10.030;2023-04-15T00:52:20;11.50;99.90
12746;DHT22;6437;53.686;10.030;2023-04-15T00:54:21;10.20;99.90
12746;DHT22;6437;53.686;10.030;2023-04-15T00:56:24;11.20;99.90
12746;DHT22;6437;53.686;10.030;2023-04-15T00:58:26;10.20;99.90
12746;DHT22;6437;53.686;10.030;2023-04-15T01:00:30;10.20;99.90
12746;DHT22;6437;53.686;10.030;2023-04-15T01:02:32;10.20;99.90
12746;DHT22;6437;53.686;10.030;2023-04-15T01:04:35;10.20;99.90
12746;DHT22;6437;53.686;10.030;2023-04-15T01:06:37;10.20;99.90
12746;DHT22;6437;53.686;10.030;2023-04-15T01:08:39;10.10;99.90
12746;DHT22;6437;53.686;10.030;2023-04-15T01:10:41;10.20;99.90
12746;DHT22;6437;53.686;10.030;2023-04-15T01:12:43;10.50;99.90
12746;DHT22;6437;53.686;10.030;2023-04-15T01:14:46;10.10;99.90
12746;DHT22;6437;53.686;10.030;2023-04-15T01:16:49;10.20;99.90
12746;DHT22;6437;53.686;10.030;2023-04-15T01:18:52;10.20;99.90
12746;DHT22;6437;53.686;10.030;2023-04-15T01:20:54;10.20;99.90
12746;DHT22;6437;53.686;10.030;2023-04-15T01:22:56;10.10;99.90
12746;DHT22;6437;53.686;10.030;2023-04-15T01:25:02;10.10;99.90
12746;DHT22;6437;53.686;10.030;2023-04-15T01:27:09;10.10;99.90
12746;DHT22;6437;53.686;10.030;2023-04-15T01:29:11;10.10;99.90
12746;DHT22;6437;53.686;10.030;2023-04-15T01:31:13;11.10;99.90
12746;DHT22;6437;53.686;10.030;2023-04-15T01:33:15;10.20;99.90
12746;DHT22;6437;53.686;10.030;2023-04-15T01:35:17;10.10;99.90
12746;DHT22;6437;53.686;10.030;2023-04-15T01:37:19;10.10;99.90
12746;DHT22;6437;53.686;10.030;2023-04-15T01:39:21;10.10;99.90
12746;DHT22;6437;53.686;10.030;2023-04-15T01:41:24;10.20;99.90
12746;DHT22;6437;53.686;10.030;2023-04-15T01:43:27;10.20;99.90
12746;DHT22;6437;53.686;10.030;2023-04-15T01:45:29;10.10;99.90
12746;DHT22;6437;53.686;10.030;2023-04-15T01:47:33;10.10;99.90
12746;DHT22;6437;53.686;10.030;2023-04-15T01:49:35;10.80;99.90
12746;DHT22;6437;53.686;10.030;2023-04-15T01:51:37;10.10;99.90
12746;DHT22;6437;53.686;10.030;2023-04-15T01:53:39;9.80;99.90
12746;DHT22;6437;53.686;10.030;2023-04-15T01:55:41;11.30;99.90
12746;DHT22;6437;53.686;10.030;2023-04-15T01:57:42;10.20;99.90
12746;DHT22;6437;53.686;10.030;2023-04-15T01:59:46;10.10;99.90
12746;DHT22;6437;53.686;10.030;2023-04-15T02:01:48;10.10;99.90
12746;DHT22;6437;53.686;10.030;2023-04-15T02:03:50;11.20;99.90
12746;DHT22;6437;53.686;10.030;2023-04-15T02:06:02;10.90;99.90
12746;DHT22;6437;53.686;10.030;2023-04-15T02:08:05;10.60;99.90
12746;DHT22;6437;53.686;10.030;2023-04-15T02:10:07;10.20;99.90
12746;DHT22;6437;53.686;10.030;2023-04-15T02:12:09;10.10;99.90
12746;DHT22;6437;53.686;10.030;2023-04-15T02:14:11;10.90;99.90
12746;DHT22;6437;53.686;10.030;2023-04-15T02:16:16;10.10;99.90
12746;DHT22;6437;53.686;10.030;2023-04-15T02:18:18;10.10;99.90
12746;DHT22;6437;53.686;10.030;2023-04-15T02:20:21;10.10;99.90
12746;DHT22;6437;53.686;10.030;2023-04-15T02:22:23;10.10;99.90
12746;DHT22;6437;53.686;10.030;2023-04-15T02:24:25;10.10;99.90
12746;DHT22;6437;53.686;10.030;2023-04-15T02:26:27;10.10;99.90
12746;DHT22;6437;53.686;10.030;2023-04-15T02:28:31;9.80;99.90
12746;DHT22;6437;53.686;10.030;2023-04-15T02:30:33;10.20;99.90
12746;DHT22;6437;53.686;10.030;2023-04-15T02:32:36;10.00;99.90
12746;DHT22;6437;53.686;10.030;2023-04-15T02:34:39;10.90;99.90
12746;DHT22;6437;53.686;10.030;2023-04-15T02:36:42;10.00;99.90
12746;DHT22;6437;53.686;10.030;2023-04-15T02:38:46;10.20;99.90
12746;DHT22;6437;53.686;10.030;2023-04-15T02:40:48;10.10;99.90
12746;DHT22;6437;53.686;10.030;2023-04-15T02:42:54;10.20;99.90
12746;DHT22;6437;53.686;10.030;2023-04-15T02:45:07;10.10;99.90
12746;DHT22;6437;53.686;10.030;2023-04-15T02:47:09;10.10;99.90
12746;DHT22;6437;53.686;10.030;2023-04-15T02:49:15;10.10;99.90
12746;DHT22;6437;53.686;10.030;2023-04-15T02:51:19;9.10;99.90
12746;DHT22;6437;53.686;10.030;2023-04-15T02:53:21;10.60;99.90
12746;DHT22;6437;53.686;10.030;2023-04-15T02:55:23;10.20;99.90
12746;DHT22;6437;53.686;10.030;2023-04-15T02:57:24;11.50;99.90
12746;DHT22;6437;53.686;10.030;2023-04-15T02:59:26;10.10;99.90
12746;DHT22;6437;53.686;10.030;2023-04-15T03:01:29;10.10;99.90
12746;DHT22;6437;53.686;10.030;2023-04-15T03:03:31;10.60;99.90
12746;DHT22;6437;53.686;10.030;2023-04-15T03:05:38;10.10;99.90
12746;DHT22;6437;53.686;10.030;2023-04-15T03:07:41;10.20;99.90
12746;DHT22;6437;53.686;10.030;2023-04-15T03:09:42;10.10;99.90
12746;DHT22;6437;53.686;10.030;2023-04-15T03:11:47;10.10;99.90
12746;DHT22;6437;53.686;10.030;2023-04-15T03:14:03;10.50;99.90
12746;DHT22;6437;53.686;10.030;2023-04-15T03:16:06;10.20;99.90
12746;DHT22;6437;53.686;10.030;2023-04-15T03:18:08;10.70;99.90
12746;DHT22;6437;53.686;10.030;2023-04-15T03:20:10;10.20;99.90
12746;DHT22;6437;53.686;10.030;2023-04-15T03:22:14;10.10;99.90
12746;DHT22;6437;53.686;10.030;2023-04-15T03:24:29;10.20;99.90
12746;DHT22;6437;53.686;10.030;2023-04-15T03:26:35;11.20;99.90
12746;DHT22;6437;53.686;10.030;2023-04-15T03:28:37;11.30;99.90
12746;DHT22;6437;53.686;10.030;2023-04-15T03:30:39;10.30;99.90
12746;DHT22;6437;53.686;10.030;2023-04-15T03:32:41;10.50;99.90
12746;DHT22;6437;53.686;10.030;2023-04-15T03:34:43;11.20;99.90
12746;DHT22;6437;53.686;10.030;2023-04-15T03:36:49;10.60;99.90
12746;DHT22;6437;53.686;10.030;2023-04-15T03:38:57;9.70;99.90
12746;DHT22;6437;53.686;10.030;2023-04-15T03:41:01;10.20;99.90
12746;DHT22;6437;53.686;10.030;2023-04-15T03:43:06;10.10;99.90
12746;DHT22;6437;53.686;10.030;2023-04-15T03:45:10;10.20;99.90
12746;DHT22;6437;53.686;10.030;2023-04-15T03:47:12;10.20;99.90
12746;DHT22;6437;53.686;10.030;2023-04-15T03:49:17;10.30;99.90
12746;DHT22;6437;53.686;10.030;2023-04-15T03:51:19;10.20;99.90
12746;DHT22;6437;53.686;10.030;2023-04-15T03:53:21;10.20;99.90
12746;DHT22;6437;53.686;10.030;2023-04-15T03:55:29;10.20;99.90
12746;DHT22;6437;53.686;10.030;2023-04-15T03:57:31;11.10;99.90
12746;DHT22;6437;53.686;10.030;2023-04-15T03:59:37;10.80;99.90
12746;DHT22;6437;53.686;10.030;2023-04-15T04:01:39;11.70;99.90
12746;DHT22;6437;53.686;10.030;2023-04-15T04:03:41;10.20;99.90
12746;DHT22;6437;53.686;10.030;2023-04-15T04:05:43;10.80;99.90
12746;DHT22;6437;53.686;10.030;2023-04-15T04:07:44;10.20;99.90
12746;DHT22;6437;53.686;10.030;2023-04-15T04:09:46;10.60;99.90
12746;DHT22;6437;53.686;10.030;2023-04-15T04:11:50;10.20;99.90
12746;DHT22;6437;53.686;10.030;2023-04-15T04:13:59;11.40;99.90
12746;DHT22;6437;53.686;10.030;2023-04-15T04:16:01;11.60;99.90
12746;DHT22;6437;53.686;10.030;2023-04-15T04:18:04;9.30;99.90
12746;DHT22;6437;53.686;10.030;2023-04-15T04:20:09;10.20;99.90
12746;DHT22;6437;53.686;10.030;2023-04-15T04:22:11;10.20;99.90
12746;DHT22;6437;53.686;10.030;2023-04-15T04:24:13;10.20;99.90
12746;DHT22;6437;53.686;10.030;2023-04-15T04:26:15;10.20;99.90
12746;DHT22;6437;53.686;10.030;2023-04-15T04:28:19;11.60;99.90
12746;DHT22;6437;53.686;10.030;2023-04-15T04:30:21;10.90;99.90
12746;DHT22;6437;53.686;10.030;2023-04-15T04:32:22;11.40;99.90
12746;DHT22;6437;53.686;10.030;2023-04-15T04:34:24;11.50;99.90
12746;DHT22;6437;53.686;10.030;2023-04-15T04:36:27;10.20;99.90
12746;DHT22;6437;53.686;10.030;2023-04-15T04:38:32;10.20;99.90
12746;DHT22;6437;53.686;10.030;2023-04-15T04:40:33;11.50;99.90
12746;DHT22;6437;53.686;10.030;2023-04-15T04:42:35;11.70;99.90
12746;DHT22;6437;53.686;10.030;2023-04-15T04:44:38;10.20;99.90
12746;DHT22;6437;53.686;10.030;2023-04-15T04:46:41;10.20;99.90
12746;DHT22;6437;53.686;10.030;2023-04-15T04:48:42;10.30;99.90
12746;DHT22;6437;53.686;10.030;2023-04-15T04:50:44;11.60;99.90
12746;DHT22;6437;53.686;10.030;2023-04-15T04:52:46;11.20;99.90
12746;DHT22;6437;53.686;10.030;2023-04-15T04:54:48;10.20;99.90
12746;DHT22;6437;53.686;10.030;2023-04-15T04:56:50;10.20;99.90
12746;DHT22;6437;53.686;10.030;2023-04-15T04:58:52;11.70;99.90
12746;DHT22;6437;53.686;10.030;2023-04-15T05:01:07;11.10;99.90
12746;DHT22;6437;53.686;10.030;2023-04-15T05:03:09;10.20;99.90
12746;DHT22;6437;53.686;10.030;2023-04-15T05:05:11;11.40;99.90
12746;DHT22;6437;53.686;10.030;2023-04-15T05:07:13;11.20;99.90
12746;DHT22;6437;53.686;10.030;2023-04-15T05:09:15;11.20;99.90
12746;DHT22;6437;53.686;10.030;2023-04-15T05:11:17;10.20;99.90
12746;DHT22;6437;53.686;10.030;2023-04-15T05:13:19;10.70;99.90
12746;DHT22;6437;53.686;10.030;2023-04-15T05:15:22;11.30;99.90
12746;DHT22;6437;53.686;10.030;2023-04-15T05:17:25;10.50;99.90
12746;DHT22;6437;53.686;10.030;2023-04-15T05:19:27;10.60;99.90
12746;DHT22;6437;53.686;10.030;2023-04-15T05:21:28;10.20;99.90
12746;DHT22;6437;53.686;10.030;2023-04-15T05:23:31;10.20;99.90
12746;DHT22;6437;53.686;10.030;2023-04-15T05:25:32;10.20;99.90
12746;DHT22;6437;53.686;10.030;2023-04-15T05:27:35;10.80;99.90
12746;DHT22;6437;53.686;10.030;2023-04-15T05:29:37;10.20;99.90
12746;DHT22;6437;53.686;10.030;2023-04-15T05:31:39;11.00;99.90
12746;DHT22;6437;53.686;10.030;2023-04-15T05:33:42;10.30;99.90
12746;DHT22;6437;53.686;10.030;2023-04-15T05:35:44;10.30;99.90
12746;DHT22;6437;53.686;10.030;2023-04-15T05:37:46;10.50;99.90
12746;DHT22;6437;53.686;10.030;2023-04-15T05:39:48;10.30;99.90
12746;DHT22;6437;53.686;10.030;2023-04-15T05:41:49;10.30;99.90
12746;DHT22;6437;53.686;10.030;2023-04-15T05:43:51;10.40;99.90
12746;DHT22;6437;53.686;10.030;2023-04-15T05:45:59;10.40;99.90
12746;DHT22;6437;53.686;10.030;2023-04-15T05:48:01;10.30;99.90
12746;DHT22;6437;53.686;10.030;2023-04-15T05:50:05;10.30;99.90
12746;DHT22;6437;53.686;10.030;2023-04-15T05:52:09;10.30;99.90
12746;DHT22;6437;53.686;10.030;2023-04-15T05:54:11;10.30;99.90
12746;DHT22;6437;53.686;10.030;2023-04-15T05:56:12;10.30;99.90
12746;DHT22;6437;53.686;10.030;2023-04-15T05:58:19;11.40;99.90
12746;DHT22;6437;53.686;10.030;2023-04-15T06:00:21;11.20;99.90
12746;DHT22;6437;53.686;10.030;2023-04-15T06:02:23;11.00;99.90
12746;DHT22;6437;53.686;10.030;2023-04-15T06:04:26;10.40;99.90
12746;DHT22;6437;53.686;10.030;2023-04-15T06:06:36;10.30;99.90
12746;DHT22;6437;53.686;10.030;2023-04-15T06:08:41;9.70;99.90
12746;DHT22;6437;53.686;10.030;2023-04-15T06:10:45;10.40;99.90
12746;DHT22;6437;53.686;10.030;2023-04-15T06:12:47;11.80;99.90
12746;DHT22;6437;53.686;10.030;2023-04-15T06:14:49;10.70;99.90
12746;DHT22;6437;53.686;10.030;2023-04-15T06:16:56;10.80;99.90
12746;DHT22;6437;53.686;10.030;2023-04-15T06:18:59;10.40;99.90
12746;DHT22;6437;53.686;10.030;2023-04-15T06:21:00;10.70;99.90
12746;DHT22;6437;53.686;10.030;2023-04-15T06:23:04;10.40;99.90
12746;DHT22;6437;53.686;10.030;2023-04-15T06:25:20;10.60;99.90
12746;DHT22;6437;53.686;10.030;2023-04-15T06:27:24;10.40;99.90
12746;DHT22;6437;53.686;10.030;2023-04-15T06:29:32;10.40;99.90
12746;DHT22;6437;53.686;10.030;2023-04-15T06:31:37;10.40;99.90
12746;DHT22;6437;53.686;10.030;2023-04-15T06:33:47;12.00;99.90
12746;DHT22;6437;53.686;10.030;2023-04-15T06:35:50;11.00;99.90
12746;DHT22;6437;53.686;10.030;2023-04-15T06:37:52;11.80;99.90
12746;DHT22;6437;53.686;10.030;2023-04-15T06:40:00;10.40;99.90
12746;DHT22;6437;53.686;10.030;2023-04-15T06:42:04;10.40;99.90
12746;DHT22;6437;53.686;10.030;2023-04-15T06:44:06;9.60;99.90
12746;DHT22;6437;53.686;10.030;2023-04-15T06:46:09;11.00;99.90
12746;DHT22;6437;53.686;10.030;2023-04-15T06:48:19;10.40;99.90
12746;DHT22;6437;53.686;10.030;2023-04-15T06:50:23;10.50;99.90
12746;DHT22;6437;53.686;10.030;2023-04-15T06:52:25;11.30;99.90
12746;DHT22;6437;53.686;10.030;2023-04-15T06:54:27;10.40;99.90
12746;DHT22;6437;53.686;10.030;2023-04-15T06:56:31;9.60;99.90
12746;DHT22;6437;53.686;10.030;2023-04-15T06:58:33;10.90;99.90
12746;DHT22;6437;53.686;10.030;2023-04-15T07:00:34;11.00;99.90
12746;DHT22;6437;53.686;10.030;2023-04-15T07:02:38;10.60;99.90
12746;DHT22;6437;53.686;10.030;2023-04-15T07:04:40;10.40;99.90
12746;DHT22;6437;53.686;10.030;2023-04-15T07:06:42;10.70;99.90
12746;DHT22;6437;53.686;10.030;2023-04-15T07:08:44;10.90;99.90
12746;DHT22;6437;53.686;10.030;2023-04-15T07:10:46;9.60;99.90
12746;DHT22;6437;53.686;10.030;2023-04-15T07:12:50;10.40;99.90
12746;DHT22;6437;53.686;10.030;2023-04-15T07:15:07;10.50;99.90
12746;DHT22;6437;53.686;10.030;2023-04-15T07:17:09;10.40;99.90
12746;DHT22;6437;53.686;10.030;2023-04-15T07:19:13;10.40;99.90
12746;DHT22;6437;53.686;10.030;2023-04-15T07:21:15;10.40;99.90
12746;DHT22;6437;53.686;10.030;2023-04-15T07:23:17;10.40;99.90
12746;DHT22;6437;53.686;10.030;2023-04-15T07:25:19;10.50;99.90
12746;DHT22;6437;53.686;10.030;2023-04-15T07:27:21;10.50;99.90
12746;DHT22;6437;53.686;10.030;2023-04-15T07:29:24;10.50;99.90
12746;DHT22;6437;53.686;10.030;2023-04-15T07:31:26;10.40;99.90
12746;DHT22;6437;53.686;10.030;2023-04-15T07:33:28;11.10;99.90
12746;DHT22;6437;53.686;10.030;2023-04-15T07:35:30;10.50;99.90
12746;DHT22;6437;53.686;10.030;2023-04-15T07:37:32;10.50;99.90
12746;DHT22;6437;53.686;10.030;2023-04-15T07:39:35;10.50;99.90
12746;DHT22;6437;53.686;10.030;2023-04-15T07:41:37;10.60;99.90
12746;DHT22;6437;53.686;10.030;2023-04-15T07:43:39;10.50;99.90
12746;DHT22;6437;53.686;10.030;2023-04-15T07:45:44;11.40;99.90
12746;DHT22;6437;53.686;10.030;2023-04-15T07:47:47;10.60;99.90
12746;DHT22;6437;53.686;10.030;2023-04-15T07:49:50;11.20;99.90
12746;DHT22;6437;53.686;10.030;2023-04-15T07:51:52;10.70;99.90
12746;DHT22;6437;53.686;10.030;2023-04-15T07:53:57;11.10;99.90
12746;DHT22;6437;53.686;10.030;2023-04-15T07:56:11;10.60;99.90
12746;DHT22;6437;53.686;10.030;2023-04-15T07:58:22;10.60;99.90
12746;DHT22;6437;53.686;10.030;2023-04-15T08:00:32;11.70;99.90
12746;DHT22;6437;53.686;10.030;2023-04-15T08:02:57;10.70;99.90
12746;DHT22;6437;53.686;10.030;2023-04-15T08:05:14;9.90;99.90
12746;DHT22;6437;53.686;10.030;2023-04-15T08:07:16;10.70;99.90
12746;DHT22;6437;53.686;10.030;2023-04-15T08:09:20;10.70;99.90
12746;DHT22;6437;53.686;10.030;2023-04-15T08:11:22;10.60;99.90
12746;DHT22;6437;53.686;10.030;2023-04-15T08:13:24;11.30;99.90
12746;DHT22;6437;53.686;10.030;2023-04-15T08:15:27;10.70;99.90
12746;DHT22;6437;53.686;10.030;2023-04-15T08:17:29;10.70;99.90
12746;DHT22;6437;53.686;10.030;2023-04-15T08:19:33;11.20;99.90
12746;DHT22;6437;53.686;10.030;2023-04-15T08:21:35;11.20;99.90
12746;DHT22;6437;53.686;10.030;2023-04-15T08:23:37;10.90;99.90
12746;DHT22;6437;53.686;10.030;2023-04-15T08:25:39;10.70;99.90
12746;DHT22;6437;53.686;10.030;2023-04-15T08:27:42;10.70;99.90
12746;DHT22;6437;53.686;10.030;2023-04-15T08:29:44;11.00;99.90
12746;DHT22;6437;53.686;10.030;2023-04-15T08:31:46;10.70;99.90
12746;DHT22;6437;53.686;10.030;2023-04-15T08:33:49;11.50;99.90
12746;DHT22;6437;53.686;10.030;2023-04-15T08:36:05;10.70;99.90
12746;DHT22;6437;53.686;10.030;2023-04-15T08:38:09;10.80;99.90
12746;DHT22;6437;53.686;10.030;2023-04-15T08:40:12;10.80;99.90
12746;DHT22;6437;53.686;10.030;2023-04-15T08:42:16;10.80;99.90
12746;DHT22;6437;53.686;10.030;2023-04-15T08:44:22;11.50;99.90
12746;DHT22;6437;53.686;10.030;2023-04-15T08:46:25;10.90;99.90
12746;DHT22;6437;53.686;10.030;2023-04-15T08:48:29;11.20;99.90
12746;DHT22;6437;53.686;10.030;2023-04-15T08:50:32;11.70;99.90
12746;DHT22;6437;53.686;10.030;2023-04-15T08:52:37;10.90;99.90
12746;DHT22;6437;53.686;10.030;2023-04-15T08:54:41;10.90;99.90
12746;DHT22;6437;53.686;10.030;2023-04-15T08:56:43;11.40;99.90
12746;DHT22;6437;53.686;10.030;2023-04-15T08:58:45;11.70;99.90
12746;DHT22;6437;53.686;10.030;2023-04-15T09:00:48;11.90;99.90
12746;DHT22;6437;53.686;10.030;2023-04-15T09:03:02;11.00;99.90
12746;DHT22;6437;53.686;10.030;2023-04-15T09:05:06;11.10;99.90
12746;DHT22;6437;53.686;10.030;2023-04-15T09:07:13;11.00;99.90
12746;DHT22;6437;53.686;10.030;2023-04-15T09:09:17;11.10;99.90
12746;DHT22;6437;53.686;10.030;2023-04-15T09:11:20;11.20;99.90
12746;DHT22;6437;53.686;10.030;2023-04-15T09:13:22;11.10;99.90
12746;DHT22;6437;53.686;10.030;2023-04-15T09:15:25;11.10;99.90
12746;DHT22;6437;53.686;10.030;2023-04-15T09:17:32;11.80;99.90
12746;DHT22;6437;53.686;10.030;2023-04-15T09:19:34;11.10;99.90
12746;DHT22;6437;53.686;10.030;2023-04-15T09:21:36;11.20;99.90
12746;DHT22;6437;53.686;10.030;2023-04-15T09:23:40;11.20;99.90
12746;DHT22;6437;53.686;10.030;2023-04-15T09:25:51;12.50;99.90
12746;DHT22;6437;53.686;10.030;2023-04-15T09:28:00;11.90;99.90
12746;DHT22;6437;53.686;10.030;2023-04-15T09:30:07;12.20;99.90
12746;DHT22;6437;53.686;10.030;2023-04-15T09:32:10;11.40;99.90
12746;DHT22;6437;53.686;10.030;2023-04-15T09:34:17;11.50;99.90
12746;DHT22;6437;53.686;10.030;2023-04-15T09:36:19;11.90;99.90
12746;DHT22;6437;53.686;10.030;2023-04-15T09:38:20;11.50;99.90
12746;DHT22;6437;53.686;10.030;2023-04-15T09:40:33;11.60;99.90
12746;DHT22;6437;53.686;10.030;2023-04-15T09:42:53;11.60;99.90
12746;DHT22;6437;53.686;10.030;2023-04-15T09:44:55;11.60;99.90
12746;DHT22;6437;53.686;10.030;2023-04-15T09:47:08;12.20;99.90
12746;DHT22;6437;53.686;10.030;2023-04-15T09:49:14;12.50;99.90
12746;DHT22;6437;53.686;10.030;2023-04-15T09:51:17;11.80;99.90
12746;DHT22;6437;53.686;10.030;2023-04-15T09:53:21;12.30;99.90
12746;DHT22;6437;53.686;10.030;2023-04-15T09:55:23;13.30;99.90
12746;DHT22;6437;53.686;10.030;2023-04-15T09:57:33;11.90;99.90
12746;DHT22;6437;53.686;10.030;2023-04-15T09:59:38;12.20;99.90
12746;DHT22;6437;53.686;10.030;2023-04-15T10:01:41;12.00;99.90
12746;DHT22;6437;53.686;10.030;2023-04-15T10:03:44;12.00;99.90
12746;DHT22;6437;53.686;10.030;2023-04-15T10:05:47;12.10;99.90
12746;DHT22;6437;53.686;10.030;2023-04-15T10:07:49;12.10;99.90
12746;DHT22;6437;53.686;10.030;2023-04-15T10:09:51;12.10;99.90
12746;DHT22;6437;53.686;10.030;2023-04-15T10:11:53;12.20;99.90
12746;DHT22;6437;53.686;10.030;2023-04-15T10:13:55;12.20;99.90
12746;DHT22;6437;53.686;10.030;2023-04-15T10:16:10;12.30;99.90
12746;DHT22;6437;53.686;10.030;2023-04-15T10:18:15;12.30;99.90
12746;DHT22;6437;53.686;10.030;2023-04-15T10:20:18;12.40;99.90
12746;DHT22;6437;53.686;10.030;2023-04-15T10:22:22;13.10;99.90
12746;DHT22;6437;53.686;10.030;2023-04-15T10:24:26;12.60;99.90
12746;DHT22;6437;53.686;10.030;2023-04-15T10:26:28;13.40;99.90
12746;DHT22;6437;53.686;10.030;2023-04-15T10:28:31;12.70;99.90
12746;DHT22;6437;53.686;10.030;2023-04-15T10:30:33;13.10;99.90
12746;DHT22;6437;53.686;10.030;2023-04-15T10:32:36;12.90;99.90
12746;DHT22;6437;53.686;10.030;2023-04-15T10:34:39;13.30;99.90
12746;DHT22;6437;53.686;10.030;2023-04-15T10:36:41;13.20;99.90
12746;DHT22;6437;53.686;10.030;2023-04-15T10:38:47;12.80;99.90
12746;DHT22;6437;53.686;10.030;2023-04-15T10:40:51;12.20;99.90
12746;DHT22;6437;53.686;10.030;2023-04-15T10:42:54;13.00;99.90
12746;DHT22;6437;53.686;10.030;2023-04-15T10:45:00;13.10;99.90
12746;DHT22;6437;53.686;10.030;2023-04-15T10:47:09;13.20;99.90
12746;DHT22;6437;53.686;10.030;2023-04-15T10:49:14;13.20;99.90
12746;DHT22;6437;53.686;10.030;2023-04-15T10:51:18;13.50;99.90
12746;DHT22;6437;53.686;10.030;2023-04-15T10:53:30;13.40;99.90
12746;DHT22;6437;53.686;10.030;2023-04-15T10:55:37;14.90;99.90
12746;DHT22;6437;53.686;10.030;2023-04-15T10:57:40;13.60;99.90
12746;DHT22;6437;53.686;10.030;2023-04-15T11:02:19;13.60;99.90
12746;DHT22;6437;53.686;10.030;2023-04-15T11:04:53;14.80;99.90
12746;DHT22;6437;53.686;10.030;2023-04-15T11:07:04;13.80;99.90
12746;DHT22;6437;53.686;10.030;2023-04-15T11:09:06;14.80;99.90
12746;DHT22;6437;53.686;10.030;2023-04-15T11:11:12;13.80;99.90
12746;DHT22;6437;53.686;10.030;2023-04-15T11:13:16;14.60;99.90
12746;DHT22;6437;53.686;10.030;2023-04-15T11:15:24;14.60;99.90
12746;DHT22;6437;53.686;10.030;2023-04-15T11:17:27;13.90;99.90
12746;DHT22;6437;53.686;10.030;2023-04-15T11:19:37;13.90;99.90
12746;DHT22;6437;53.686;10.030;2023-04-15T11:21:40;13.90;99.90
12746;DHT22;6437;53.686;10.030;2023-04-15T11:23:43;14.10;99.90
12746;DHT22;6437;53.686;10.030;2023-04-15T11:25:46;14.00;99.90
12746;DHT22;6437;53.686;10.030;2023-04-15T11:27:48;14.00;99.90
12746;DHT22;6437;53.686;10.030;2023-04-15T11:29:55;15.20;99.90
12746;DHT22;6437;53.686;10.030;2023-04-15T11:32:10;13.90;99.90
12746;DHT22;6437;53.686;10.030;2023-04-15T11:34:21;14.40;99.90
12746;DHT22;6437;53.686;10.030;2023-04-15T11:36:24;13.90;99.90
12746;DHT22;6437;53.686;10.030;2023-04-15T11:38:31;15.00;99.90
12746;DHT22;6437;53.686;10.030;2023-04-15T11:40:34;14.00;99.90
12746;DHT22;6437;53.686;10.030;2023-04-15T11:42:37;13.90;99.90
12746;DHT22;6437;53.686;10.030;2023-04-15T11:44:39;13.90;99.90
12746;DHT22;6437;53.686;10.030;2023-04-15T11:46:44;14.60;99.90
12746;DHT22;6437;53.686;10.030;2023-04-15T11:48:46;15.10;99.90
12746;DHT22;6437;53.686;10.030;2023-04-15T11:50:51;14.00;99.90
12746;DHT22;6437;53.686;10.030;2023-04-15T11:52:54;14.00;99.90
12746;DHT22;6437;53.686;10.030;2023-04-15T11:55:06;13.90;99.90
12746;DHT22;6437;53.686;10.030;2023-04-15T11:57:16;14.80;99.90
12746;DHT22;6437;53.686;10.030;2023-04-15T11:59:18;13.90;99.90
12746;DHT22;6437;53.686;10.030;2023-04-15T12:01:20;14.20;99.90
12746;DHT22;6437;53.686;10.030;2023-04-15T12:03:36;14.80;99.90
12746;DHT22;6437;53.686;10.030;2023-04-15T12:06:06;14.60;99.90
12746;DHT22;6437;53.686;10.030;2023-04-15T12:08:11;13.80;99.90
12746;DHT22;6437;53.686;10.030;2023-04-15T12:10:16;13.80;99.90
12746;DHT22;6437;53.686;10.030;2023-04-15T12:12:18;13.80;99.90
12746;DHT22;6437;53.686;10.030;2023-04-15T12:14:23;13.80;99.90
12746;DHT22;6437;53.686;10.030;2023-04-15T12:16:27;13.90;99.90
12746;DHT22;6437;53.686;10.030;2023-04-15T12:18:29;13.80;99.90
12746;DHT22;6437;53.686;10.030;2023-04-15T12:20:31;13.90;99.90
12746;DHT22;6437;53.686;10.030;2023-04-15T12:22:36;15.00;99.90
12746;DHT22;6437;53.686;10.030;2023-04-15T12:24:41;13.80;99.90
12746;DHT22;6437;53.686;10.030;2023-04-15T12:26:50;13.80;99.90
12746;DHT22;6437;53.686;10.030;2023-04-15T12:28:54;14.80;99.90
12746;DHT22;6437;53.686;10.030;2023-04-15T12:30:56;13.80;99.90
12746;DHT22;6437;53.686;10.030;2023-04-15T12:33:08;15.30;99.90
12746;DHT22;6437;53.686;10.030;2023-04-15T12:35:11;13.80;99.90
12746;DHT22;6437;53.686;10.030;2023-04-15T12:37:13;14.70;99.90
12746;DHT22;6437;53.686;10.030;2023-04-15T12:39:15;13.90;99.90
12746;DHT22;6437;53.686;10.030;2023-04-15T12:41:18;13.80;99.90
12746;DHT22;6437;53.686;10.030;2023-04-15T12:43:21;13.80;99.90
12746;DHT22;6437;53.686;10.030;2023-04-15T12:45:24;13.80;99.90
12746;DHT22;6437;53.686;10.030;2023-04-15T12:47:26;14.20;99.90
12746;DHT22;6437;53.686;10.030;2023-04-15T12:49:31;14.20;99.90
12746;DHT22;6437;53.686;10.030;2023-04-15T12:51:33;13.90;99.90
12746;DHT22;6437;53.686;10.030;2023-04-15T12:53:35;15.30;99.90
12746;DHT22;6437;53.686;10.030;2023-04-15T12:55:37;13.90;99.90
12746;DHT22;6437;53.686;10.030;2023-04-15T12:57:39;14.00;99.90
12746;DHT22;6437;53.686;10.030;2023-04-15T12:59:42;13.90;99.90
12746;DHT22;6437;53.686;10.030;2023-04-15T13:01:45;13.90;99.90
12746;DHT22;6437;53.686;10.030;2023-04-15T13:03:47;14.40;99.90
12746;DHT22;6437;53.686;10.030;2023-04-15T13:05:52;13.90;99.90
12746;DHT22;6437;53.686;10.030;2023-04-15T13:08:05;14.20;99.90